createdAt,value
2018-03-16T00:04:19.267Z,6.80
2018-03-16T00:09:21.825Z,6.70
2018-03-16T00:14:24.422Z,6.70
2018-03-16T00:19:26.981Z,6.70
2018-03-16T00:24:29.576Z,6.70
2018-03-16T00:29:32.130Z,6.60
2018-03-16T00:34:34.696Z,6.60
2018-03-16T00:39:37.275Z,6.60
2018-03-16T00:44:39.859Z,6.60
2018-03-16T00:49:42.604Z,6.60
2018-03-16T00:54:45.170Z,6.50
2018-03-16T00:59:47.975Z,6.50
2018-03-16T01:04:50.534Z,6.50
2018-03-16T01:09:53.090Z,6.50
2018-03-16T01:14:55.636Z,6.40
2018-03-16T01:19:58.206Z,6.40
2018-03-16T01:25:00.774Z,6.40
2018-03-16T01:30:04.110Z,6.40
2018-03-16T01:35:06.691Z,6.40
2018-03-16T01:40:09.254Z,6.40
2018-03-16T01:45:11.824Z,6.30
2018-03-16T01:50:14.412Z,6.30
2018-03-16T01:55:16.970Z,6.30
2018-03-16T02:00:19.534Z,6.30
2018-03-16T02:05:22.100Z,6.30
2018-03-16T02:10:24.714Z,6.20
2018-03-16T02:15:27.290Z,6.20
2018-03-16T02:20:32.325Z,6.20
2018-03-16T02:25:34.917Z,6.10
2018-03-16T02:30:37.483Z,6.20
2018-03-16T02:35:40.060Z,6.10
2018-03-16T02:40:42.630Z,6.10
2018-03-16T02:45:45.552Z,6.10
2018-03-16T02:50:48.108Z,6.10
2018-03-16T02:55:50.681Z,6.10
2018-03-16T03:00:53.261Z,6.00
2018-03-16T03:05:56.582Z,6.00
2018-03-16T03:10:59.966Z,5.90
2018-03-16T03:16:02.526Z,5.90
2018-03-16T03:21:05.069Z,5.90
2018-03-16T03:26:07.647Z,5.90
2018-03-16T03:31:10.211Z,5.90
2018-03-16T03:36:12.777Z,5.90
2018-03-16T03:41:15.351Z,5.90
2018-03-16T03:46:17.910Z,5.90
2018-03-16T03:51:21.237Z,5.90
2018-03-16T03:56:23.786Z,5.80
2018-03-16T04:01:26.337Z,5.80
2018-03-16T04:06:28.910Z,5.80
2018-03-16T04:11:32.222Z,5.80
2018-03-16T04:16:35.540Z,5.70
2018-03-16T04:21:38.194Z,5.70
2018-03-16T04:26:40.737Z,5.70
2018-03-16T04:31:43.298Z,5.70
2018-03-16T04:36:45.968Z,5.70
2018-03-16T04:41:48.586Z,5.60
2018-03-16T04:46:51.147Z,5.60
2018-03-16T04:51:54.481Z,5.60
2018-03-16T04:56:57.066Z,5.50
2018-03-16T05:01:59.623Z,5.50
2018-03-16T05:07:02.187Z,5.50
2018-03-16T05:12:04.838Z,5.50
2018-03-16T05:17:07.406Z,5.40
2018-03-16T05:22:09.963Z,5.40
2018-03-16T05:27:13.284Z,5.30
2018-03-16T05:32:16.615Z,5.30
2018-03-16T05:37:19.199Z,5.30
2018-03-16T05:42:21.769Z,5.30
2018-03-16T05:47:24.550Z,5.30
2018-03-16T05:52:27.119Z,5.30
2018-03-16T05:57:29.690Z,5.30
2018-03-16T06:02:33.057Z,5.30
2018-03-16T06:07:35.602Z,5.30
2018-03-16T06:12:38.150Z,5.30
2018-03-16T06:17:40.702Z,5.30
2018-03-16T06:22:43.252Z,5.30
2018-03-16T06:27:46.155Z,5.30
2018-03-16T06:32:48.712Z,5.30
2018-03-16T06:37:51.258Z,5.30
2018-03-16T06:42:53.818Z,5.40
2018-03-16T06:47:56.386Z,5.30
2018-03-16T06:52:58.929Z,5.40
2018-03-16T06:58:01.864Z,5.40
2018-03-16T07:03:04.442Z,5.40
2018-03-16T07:08:07.754Z,5.50
2018-03-16T07:13:10.302Z,5.50
2018-03-16T07:18:12.849Z,5.50
2018-03-16T07:23:15.460Z,5.60
2018-03-16T07:28:17.973Z,5.70
2018-03-16T07:33:21.281Z,5.90
2018-03-16T07:38:23.845Z,5.80
2018-03-16T07:43:26.408Z,6.00
2018-03-16T07:48:29.614Z,6.10
2018-03-16T07:53:32.206Z,6.20
2018-03-16T07:58:34.981Z,6.30
2018-03-16T08:03:37.533Z,6.40
2018-03-16T08:08:40.089Z,6.50
2018-03-16T08:13:42.747Z,6.60
2018-03-16T08:18:45.312Z,6.70
2018-03-16T08:23:47.856Z,6.90
2018-03-16T08:28:50.571Z,7.10
2018-03-16T08:33:53.941Z,7.80
2018-03-16T08:38:56.490Z,7.70
2018-03-16T08:43:59.040Z,8.20
2018-03-16T08:49:01.619Z,8.50
2018-03-16T08:54:04.138Z,8.90
2018-03-16T08:59:06.721Z,9.40
2018-03-16T09:04:09.386Z,9.70
2018-03-16T09:09:11.942Z,10.00
2018-03-16T09:14:14.968Z,10.30
2018-03-16T09:19:17.526Z,10.40
2018-03-16T09:24:20.858Z,10.90
2018-03-16T09:29:23.430Z,10.90
2018-03-16T09:34:26.760Z,11.40
2018-03-16T09:39:30.084Z,11.60
2018-03-16T09:44:32.779Z,11.50
2018-03-16T09:49:35.350Z,11.80
2018-03-16T09:54:49.876Z,12.00
2018-03-16T09:59:52.459Z,12.30
2018-03-16T10:04:55.813Z,12.60
2018-03-16T10:09:58.382Z,12.50
2018-03-16T10:15:01.458Z,12.70
2018-03-16T10:20:04.026Z,12.80
2018-03-16T10:25:06.595Z,12.90
2018-03-16T10:30:09.153Z,13.00
2018-03-16T10:35:11.710Z,12.90
2018-03-16T10:40:14.262Z,12.90
2018-03-16T10:45:16.828Z,12.80
2018-03-16T10:50:19.394Z,12.70
2018-03-16T10:55:22.034Z,12.70
2018-03-16T11:00:30.234Z,12.50
2018-03-16T11:05:32.799Z,12.50
2018-03-16T11:10:35.344Z,12.30
2018-03-16T11:15:37.890Z,12.30
2018-03-16T11:20:40.426Z,12.10
2018-03-16T11:25:42.978Z,12.10
2018-03-16T11:30:45.514Z,12.00
2018-03-16T11:35:49.648Z,12.00
2018-03-16T11:40:52.976Z,12.00
2018-03-16T11:45:55.545Z,12.00
2018-03-16T11:50:58.273Z,12.20
2018-03-16T11:56:00.901Z,12.30
2018-03-16T12:01:03.463Z,12.40
2018-03-16T12:06:06.032Z,12.50
2018-03-16T12:11:09.332Z,12.50
2018-03-16T12:16:11.895Z,12.50
2018-03-16T12:21:14.445Z,12.50
2018-03-16T12:26:16.998Z,12.40
2018-03-16T12:31:19.576Z,12.40
2018-03-16T12:36:22.103Z,12.30
2018-03-16T12:41:24.665Z,12.30
2018-03-16T12:46:27.202Z,12.30
2018-03-16T12:51:30.233Z,12.30
2018-03-16T12:56:32.737Z,12.20
2018-03-16T13:01:35.293Z,12.10
2018-03-16T13:06:38.126Z,12.10
2018-03-16T13:11:40.690Z,12.10
2018-03-16T13:16:43.238Z,12.10
2018-03-16T13:21:45.789Z,12.10
2018-03-16T13:26:48.340Z,12.10
2018-03-16T13:31:50.891Z,12.10
2018-03-16T13:36:53.653Z,12.00
2018-03-16T13:41:56.201Z,12.00
2018-03-16T13:46:58.766Z,12.00
2018-03-16T13:52:01.309Z,12.00
2018-03-16T13:57:03.856Z,11.90
2018-03-16T14:02:06.435Z,11.90
2018-03-16T14:07:08.994Z,11.80
2018-03-16T14:12:12.316Z,11.70
2018-03-16T14:17:15.646Z,11.60
2018-03-16T14:22:18.465Z,11.60
2018-03-16T14:27:21.001Z,11.50
2018-03-16T14:32:23.631Z,11.40
2018-03-16T14:37:26.991Z,11.40
2018-03-16T14:42:29.547Z,11.40
2018-03-16T14:47:32.099Z,11.40
2018-03-16T14:52:34.942Z,11.40
2018-03-16T14:57:37.473Z,11.40
2018-03-16T15:02:40.024Z,11.40
2018-03-16T15:07:42.557Z,11.40
2018-03-16T15:12:45.102Z,11.40
2018-03-16T15:17:47.651Z,11.40
2018-03-16T15:22:51.282Z,11.40
2018-03-16T15:27:53.873Z,11.40
2018-03-16T15:32:56.429Z,11.40
2018-03-16T15:37:58.970Z,11.30
2018-03-16T15:43:01.515Z,11.30
2018-03-16T15:48:04.087Z,11.20
2018-03-16T15:53:07.425Z,11.10
2018-03-16T15:58:09.990Z,11.10
2018-03-16T16:03:12.907Z,11.10
2018-03-16T16:08:17.255Z,11.00
2018-03-16T16:13:19.818Z,11.00
2018-03-16T16:18:22.399Z,10.90
2018-03-16T16:23:24.996Z,10.80
2018-03-16T16:28:27.541Z,10.80
2018-03-16T16:33:30.118Z,10.70
2018-03-16T16:38:32.702Z,10.70
2018-03-16T16:43:36.102Z,10.60
2018-03-16T16:48:38.655Z,10.60
2018-03-16T16:53:41.256Z,10.50
2018-03-16T16:58:43.907Z,10.50
2018-03-16T17:03:46.465Z,10.40
2018-03-16T17:08:49.019Z,10.30
2018-03-16T17:13:51.983Z,10.30
2018-03-16T17:18:54.541Z,10.20
2018-03-16T17:23:57.095Z,10.10
2018-03-16T17:29:00.429Z,10.00
2018-03-16T17:34:03.260Z,10.00
2018-03-16T17:39:05.985Z,9.90
2018-03-16T17:44:08.567Z,9.90
2018-03-16T17:49:11.146Z,9.80
2018-03-16T17:54:13.718Z,9.70
2018-03-16T17:59:16.274Z,9.60
2018-03-16T18:04:18.843Z,9.60
2018-03-16T18:09:22.168Z,9.50
2018-03-16T18:14:24.694Z,9.40
2018-03-16T18:19:27.227Z,9.40
2018-03-16T18:24:30.530Z,9.20
2018-03-16T18:29:33.081Z,9.20
2018-03-16T18:34:36.025Z,9.20
2018-03-16T18:39:38.599Z,9.10
2018-03-16T18:44:41.912Z,9.00
2018-03-16T18:49:44.478Z,9.00
2018-03-16T18:54:47.058Z,9.00
2018-03-16T18:59:50.363Z,9.00
2018-03-16T19:04:52.942Z,8.90
2018-03-16T19:09:55.495Z,8.90
2018-03-16T19:14:58.076Z,8.90
2018-03-16T19:20:01.413Z,8.80
2018-03-16T19:25:04.748Z,8.80
2018-03-16T19:30:07.327Z,8.80
2018-03-16T19:35:09.880Z,8.80
2018-03-16T19:40:12.724Z,8.70
2018-03-16T19:45:16.031Z,8.70
2018-03-16T19:50:19.351Z,8.60
2018-03-16T19:55:21.906Z,8.60
2018-03-16T20:00:24.463Z,8.60
2018-03-16T20:05:27.021Z,8.50
2018-03-16T20:10:29.595Z,8.50
2018-03-16T20:15:32.143Z,8.40
2018-03-16T20:20:34.954Z,8.30
2018-03-16T20:25:37.509Z,8.30
2018-03-16T20:30:40.068Z,8.20
2018-03-16T20:35:43.420Z,8.10
2018-03-16T20:40:46.037Z,8.10
2018-03-16T20:45:48.523Z,8.10
2018-03-16T20:50:51.120Z,8.00
2018-03-16T20:55:53.695Z,7.90
2018-03-16T21:00:56.242Z,7.80
2018-03-16T21:05:58.813Z,7.80
2018-03-16T21:11:01.383Z,7.70
2018-03-16T21:16:04.790Z,7.60
2018-03-16T21:21:08.127Z,7.60
2018-03-16T21:26:10.665Z,7.60
2018-03-16T21:31:13.257Z,7.60
2018-03-16T21:36:15.759Z,7.50
2018-03-16T21:41:18.555Z,7.50
2018-03-16T21:46:21.508Z,7.40
2018-03-16T21:51:25.129Z,7.40
2018-03-16T21:56:31.066Z,7.30
2018-03-16T22:01:33.661Z,7.30
2018-03-16T22:06:36.219Z,7.30
2018-03-16T22:11:39.542Z,7.20
2018-03-16T22:16:42.860Z,7.10
2018-03-16T22:21:45.462Z,7.10
2018-03-16T22:26:48.768Z,7.00
2018-03-16T22:31:52.926Z,7.00
2018-03-16T22:36:55.500Z,7.00
2018-03-16T22:41:58.038Z,6.90
2018-03-16T22:47:00.588Z,6.80
2018-03-16T22:52:03.166Z,6.80
2018-03-16T22:57:05.718Z,6.70
2018-03-16T23:02:09.034Z,6.50
2018-03-16T23:07:12.355Z,6.50
2018-03-16T23:12:14.924Z,6.50
2018-03-16T23:17:17.522Z,6.40
2018-03-16T23:22:20.106Z,6.30
2018-03-16T23:27:22.694Z,6.30
2018-03-16T23:32:25.309Z,6.20
2018-03-16T23:37:29.063Z,6.20
2018-03-16T23:42:31.636Z,6.20
2018-03-16T23:47:34.431Z,6.10
2018-03-16T23:52:37.042Z,6.10
2018-03-16T23:57:39.600Z,6.10
